createdAt,value
2023-04-14T00:03:46.059Z,9.30
2023-04-14T00:08:48.658Z,9.30
2023-04-14T00:13:51.049Z,9.30
2023-04-14T00:18:53.429Z,9.30
2023-04-14T00:23:56.849Z,9.20
2023-04-14T00:28:59.437Z,9.30
2023-04-14T00:34:02.033Z,9.30
2023-04-14T00:39:06.457Z,9.30
2023-04-14T00:44:09.490Z,9.30
2023-04-14T00:49:12.151Z,9.30
2023-04-14T00:54:17.071Z,9.30
2023-04-14T00:59:20.973Z,9.40
2023-04-14T01:04:24.814Z,9.30
2023-04-14T01:09:30.134Z,9.40
2023-04-14T01:14:44.866Z,9.30
2023-04-14T01:19:54.759Z,9.40
2023-04-14T01:25:49.835Z,9.30
2023-04-14T01:31:11.441Z,9.30
2023-04-14T01:36:20.694Z,9.30
2023-04-14T01:41:25.916Z,9.40
2023-04-14T01:46:28.755Z,9.40
2023-04-14T01:51:33.845Z,9.40
2023-04-14T01:56:39.908Z,9.40
2023-04-14T02:01:44.236Z,9.50
2023-04-14T02:06:48.765Z,9.40
2023-04-14T02:11:52.925Z,9.40
2023-04-14T02:16:59.330Z,9.40
2023-04-14T02:22:03.405Z,9.50
2023-04-14T02:27:10.634Z,9.50
2023-04-14T02:32:21.948Z,9.40
2023-04-14T02:37:27.350Z,9.50
2023-04-14T02:42:31.117Z,9.40
2023-04-14T02:47:38.210Z,9.50
2023-04-14T02:52:42.422Z,9.40
2023-04-14T02:57:46.982Z,9.50
2023-04-14T03:02:53.331Z,9.50
2023-04-14T03:07:57.012Z,9.60
2023-04-14T03:13:02.553Z,9.50
2023-04-14T03:18:07.180Z,9.50
2023-04-14T03:23:12.455Z,9.50
2023-04-14T03:28:32.566Z,9.40
2023-04-14T03:33:38.799Z,9.50
2023-04-14T03:38:48.990Z,9.50
2023-04-14T03:43:56.950Z,9.40
2023-04-14T03:49:00.225Z,9.30
2023-04-14T03:54:06.557Z,9.40
2023-04-14T03:59:14.313Z,9.50
2023-04-14T04:04:19.286Z,9.30
2023-04-14T04:09:24.634Z,9.30
2023-04-14T04:14:30.079Z,9.50
2023-04-14T04:19:34.363Z,9.50
2023-04-14T04:24:41.330Z,9.40
2023-04-14T04:29:50.887Z,9.50
2023-04-14T04:34:54.740Z,9.30
2023-04-14T04:39:58.478Z,9.50
2023-04-14T04:45:02.162Z,9.50
2023-04-14T04:50:05.789Z,9.40
2023-04-14T04:55:08.447Z,9.60
2023-04-14T05:00:11.478Z,9.50
2023-04-14T05:05:13.952Z,9.50
2023-04-14T05:10:16.472Z,9.70
2023-04-14T05:15:18.993Z,9.60
2023-04-14T05:20:21.873Z,9.60
2023-04-14T05:25:24.307Z,9.60
2023-04-14T05:30:27.566Z,9.60
2023-04-14T05:35:30.058Z,9.50
2023-04-14T05:40:35.477Z,9.70
2023-04-14T05:45:38.165Z,9.70
2023-04-14T05:50:41.122Z,9.70
2023-04-14T05:55:43.697Z,9.70
2023-04-14T06:00:46.212Z,9.70
2023-04-14T06:05:48.782Z,9.70
2023-04-14T06:10:51.516Z,9.80
2023-04-14T06:15:56.173Z,9.80
2023-04-14T06:21:06.447Z,9.80
2023-04-14T06:26:09.309Z,9.80
2023-04-14T06:31:11.997Z,9.90
2023-04-14T06:36:18.234Z,9.90
2023-04-14T06:41:20.790Z,9.90
2023-04-14T06:46:23.380Z,10.00
2023-04-14T06:51:27.153Z,10.00
2023-04-14T06:56:29.636Z,10.00
2023-04-14T07:01:32.391Z,10.10
2023-04-14T07:06:34.929Z,10.10
2023-04-14T07:11:37.435Z,10.10
2023-04-14T07:16:39.960Z,10.20
2023-04-14T07:27:07.595Z,10.40
2023-04-14T07:32:14.421Z,10.60
2023-04-14T07:37:16.934Z,10.70
2023-04-14T07:42:19.356Z,10.80
2023-04-14T07:47:22.409Z,10.90
2023-04-14T07:52:25.059Z,11.10
2023-04-14T07:57:27.664Z,11.20
2023-04-14T08:02:30.735Z,11.20
2023-04-14T08:07:33.540Z,11.20
2023-04-14T08:12:36.085Z,11.30
2023-04-14T08:17:38.708Z,11.40
2023-04-14T08:22:43.850Z,11.40
2023-04-14T08:27:46.465Z,11.60
2023-04-14T08:38:20.960Z,11.70
2023-04-14T08:43:23.849Z,11.60
2023-04-14T08:48:31.055Z,11.60
2023-04-14T08:53:35.092Z,11.60
2023-04-14T08:58:38.482Z,11.60
2023-04-14T09:03:41.743Z,11.70
2023-04-14T09:08:47.129Z,11.70
2023-04-14T09:13:50.382Z,11.80
2023-04-14T09:18:53.799Z,11.90
2023-04-14T09:23:57.067Z,12.00
2023-04-14T09:29:24.506Z,12.10
2023-04-14T09:34:27.436Z,12.40
2023-04-14T09:39:30.217Z,12.60
2023-04-14T09:44:32.977Z,12.60
2023-04-14T09:49:35.678Z,12.70
2023-04-14T09:54:41.416Z,12.70
2023-04-14T09:59:47.110Z,12.80
2023-04-14T10:05:05.141Z,12.90
2023-04-14T10:10:13.490Z,13.30
2023-04-14T10:15:17.421Z,13.70
2023-04-14T10:20:20.225Z,14.00
2023-04-14T10:25:24.463Z,14.30
2023-04-14T10:30:27.591Z,14.70
2023-04-14T10:35:39.725Z,15.20
2023-04-14T10:40:51.551Z,15.70
2023-04-14T10:45:58.287Z,16.30
2023-04-14T10:51:04.408Z,16.70
2023-04-14T10:56:07.279Z,17.20
2023-04-14T11:01:31.986Z,17.70
2023-04-14T11:06:52.369Z,18.00
2023-04-14T11:11:56.819Z,18.30
2023-04-14T11:17:05.035Z,18.50
2023-04-14T11:22:07.973Z,18.80
2023-04-14T11:27:11.886Z,18.90
2023-04-14T11:32:14.433Z,19.20
2023-04-14T11:37:16.949Z,19.00
2023-04-14T11:42:19.737Z,18.80
2023-04-14T11:47:22.386Z,18.70
2023-04-14T11:52:24.848Z,19.00
2023-04-14T11:57:27.535Z,19.20
2023-04-14T12:02:30.441Z,19.10
2023-04-14T12:07:33.655Z,19.10
2023-04-14T12:12:36.864Z,19.00
2023-04-14T12:17:39.668Z,18.90
2023-04-14T12:22:42.137Z,19.00
2023-04-14T12:27:53.524Z,18.90
2023-04-14T12:32:57.857Z,19.10
2023-04-14T12:38:00.580Z,19.20
2023-04-14T12:43:03.162Z,19.50
2023-04-14T12:48:13.713Z,19.90
2023-04-14T12:53:29.149Z,21.30
2023-04-14T12:58:32.183Z,23.50
2023-04-14T13:03:40.831Z,24.10
2023-04-14T13:08:48.513Z,23.40
2023-04-14T13:13:54.695Z,23.00
2023-04-14T13:18:57.329Z,23.00
2023-04-14T13:23:59.771Z,23.80
2023-04-14T13:29:02.993Z,25.10
2023-04-14T13:34:06.149Z,25.70
2023-04-14T13:39:09.201Z,25.80
2023-04-14T13:44:13.360Z,26.70
2023-04-14T13:49:16.053Z,27.30
2023-04-14T13:54:18.738Z,26.10
2023-04-14T13:59:22.985Z,24.30
2023-04-14T14:04:26.390Z,23.30
2023-04-14T14:09:30.109Z,23.00
2023-04-14T14:14:32.794Z,23.50
2023-04-14T14:19:35.431Z,24.00
2023-04-14T14:24:39.061Z,23.90
2023-04-14T14:29:45.360Z,23.70
2023-04-14T14:34:53.710Z,22.70
2023-04-14T14:39:57.292Z,22.70
2023-04-14T14:45:00.991Z,24.00
2023-04-14T14:50:06.866Z,24.60
2023-04-14T14:55:10.770Z,25.60
2023-04-14T15:00:13.558Z,26.50
2023-04-14T15:05:16.280Z,25.40
2023-04-14T15:10:18.681Z,25.40
2023-04-14T15:15:21.378Z,23.60
2023-04-14T15:20:23.803Z,22.00
2023-04-14T15:25:26.313Z,20.90
2023-04-14T15:30:28.940Z,20.20
2023-04-14T15:35:38.666Z,19.70
2023-04-14T15:40:41.334Z,19.30
2023-04-14T15:45:43.677Z,19.10
2023-04-14T15:50:46.050Z,19.10
2023-04-14T15:55:51.345Z,18.90
2023-04-14T16:00:53.871Z,18.90
2023-04-14T16:06:07.268Z,18.90
2023-04-14T16:11:15.230Z,18.70
2023-04-14T16:16:17.924Z,18.60
2023-04-14T16:21:20.372Z,18.30
2023-04-14T16:26:23.812Z,18.00
2023-04-14T16:31:26.234Z,17.90
2023-04-14T16:36:29.145Z,17.80
2023-04-14T16:41:32.018Z,17.60
2023-04-14T16:46:34.509Z,17.60
2023-04-14T16:51:38.173Z,17.50
2023-04-14T16:56:40.608Z,17.30
2023-04-14T17:01:44.834Z,17.20
2023-04-14T17:06:47.469Z,17.10
2023-04-14T17:11:49.905Z,17.00
2023-04-14T17:16:52.789Z,16.80
2023-04-14T17:21:55.142Z,16.70
2023-04-14T17:26:57.508Z,16.50
2023-04-14T17:32:01.375Z,16.40
2023-04-14T17:37:04.970Z,16.20
2023-04-14T17:42:07.518Z,16.10
2023-04-14T17:47:15.710Z,15.90
2023-04-14T17:52:18.647Z,15.80
2023-04-14T17:57:21.033Z,15.70
2023-04-14T18:02:24.166Z,15.70
2023-04-14T18:07:26.625Z,15.60
2023-04-14T18:12:30.282Z,15.50
2023-04-14T18:17:34.896Z,15.40
2023-04-14T18:22:38.250Z,15.30
2023-04-14T18:32:46.346Z,15.20
2023-04-14T18:37:48.881Z,15.10
2023-04-14T18:42:52.334Z,15.10
2023-04-14T18:47:54.761Z,15.10
2023-04-14T18:52:57.214Z,15.00
2023-04-14T18:57:59.629Z,15.00
2023-04-14T19:03:04.475Z,14.90
2023-04-14T19:08:07.726Z,14.80
2023-04-14T19:13:11.264Z,14.80
2023-04-14T19:18:13.823Z,14.70
2023-04-14T19:23:16.236Z,14.70
2023-04-14T19:28:18.644Z,14.70
2023-04-14T19:33:21.761Z,14.70
2023-04-14T19:38:24.248Z,14.70
2023-04-14T19:43:26.744Z,14.70
2023-04-14T19:48:29.340Z,14.70
2023-04-14T19:53:31.819Z,14.70
2023-04-14T19:58:34.224Z,14.70
2023-04-14T20:03:36.695Z,14.70
2023-04-14T20:08:39.225Z,14.70
2023-04-14T20:13:41.710Z,14.60
2023-04-14T20:18:45.635Z,14.50
2023-04-14T20:23:48.191Z,14.50
2023-04-14T20:28:51.252Z,14.40
2023-04-14T20:33:53.706Z,14.40
2023-04-14T20:38:56.098Z,14.20
2023-04-14T20:43:58.540Z,14.10
2023-04-14T20:49:02.690Z,14.00
2023-04-14T20:54:05.627Z,13.90
2023-04-14T20:59:08.088Z,13.80
2023-04-14T21:04:10.908Z,13.70
2023-04-14T21:09:13.502Z,13.70
2023-04-14T21:15:30.956Z,13.60
2023-04-14T21:19:38.570Z,13.50
2023-04-14T21:24:44.907Z,13.40
2023-04-14T21:29:47.313Z,13.30
2023-04-14T21:34:49.760Z,13.20
2023-04-14T21:39:52.175Z,13.10
2023-04-14T21:44:54.548Z,13.00
2023-04-14T21:49:56.980Z,13.00
2023-04-14T21:54:59.442Z,13.00
2023-04-14T22:00:02.121Z,12.90
2023-04-14T22:05:05.019Z,12.90
2023-04-14T22:10:07.801Z,12.80
2023-04-14T22:15:10.616Z,12.80
2023-04-14T22:20:13.210Z,12.70
2023-04-14T22:25:16.732Z,12.60
2023-04-14T22:30:19.214Z,12.60
2023-04-14T22:35:22.250Z,12.50
2023-04-14T22:40:24.815Z,12.40
2023-04-14T22:45:28.213Z,12.40
2023-04-14T22:50:31.364Z,12.40
2023-04-14T22:55:33.874Z,12.40
2023-04-14T23:00:36.231Z,12.40
2023-04-14T23:05:39.279Z,12.40
2023-04-14T23:10:41.836Z,12.40
2023-04-14T23:15:44.406Z,12.30
2023-04-14T23:20:46.813Z,12.30
2023-04-14T23:25:49.345Z,12.30
2023-04-14T23:30:52.043Z,12.20
2023-04-14T23:35:56.303Z,12.20
2023-04-14T23:41:00.128Z,12.10
2023-04-14T23:46:02.779Z,12.10
2023-04-14T23:51:15.457Z,12.10
2023-04-14T23:56:24.091Z,12.00
